sensor_id;sensor_type;location;lat;lon;timestamp;temperature;humidity
20370;DHT22;10344;47.592;9.600;2022-08-23T00:01:28;16.60;99.90
20370;DHT22;10344;47.592;9.600;2022-08-23T00:03:56;16.60;99.90
20370;DHT22;10344;47.592;9.600;2022-08-23T00:06:28;16.60;99.90
20370;DHT22;10344;47.592;9.600;2022-08-23T00:08:54;16.50;99.90
20370;DHT22;10344;47.592;9.600;2022-08-23T00:11:31;16.50;99.90
20370;DHT22;10344;47.592;9.600;2022-08-23T00:13:58;16.50;99.90
20370;DHT22;10344;47.592;9.600;2022-08-23T00:16:27;16.40;99.90
20370;DHT22;10344;47.592;9.600;2022-08-23T00:18:53;16.40;99.90
20370;DHT22;10344;47.592;9.600;2022-08-23T00:21:18;16.40;99.90
20370;DHT22;10344;47.592;9.600;2022-08-23T00:23:44;16.30;99.90
20370;DHT22;10344;47.592;9.600;2022-08-23T00:26:09;16.30;99.90
20370;DHT22;10344;47.592;9.600;2022-08-23T00:28:37;16.30;99.90
20370;DHT22;10344;47.592;9.600;2022-08-23T00:31:02;16.30;99.90
20370;DHT22;10344;47.592;9.600;2022-08-23T00:33:28;16.30;99.90
20370;DHT22;10344;47.592;9.600;2022-08-23T00:35:53;16.20;99.90
20370;DHT22;10344;47.592;9.600;2022-08-23T00:38:19;16.20;99.90
20370;DHT22;10344;47.592;9.600;2022-08-23T00:40:45;16.10;99.90
20370;DHT22;10344;47.592;9.600;2022-08-23T00:43:11;16.10;99.90
20370;DHT22;10344;47.592;9.600;2022-08-23T00:48:40;15.90;99.90
20370;DHT22;10344;47.592;9.600;2022-08-23T00:53:36;15.90;99.90
20370;DHT22;10344;47.592;9.600;2022-08-23T00:56:08;15.80;99.90
20370;DHT22;10344;47.592;9.600;2022-08-23T00:58:37;15.80;99.90
20370;DHT22;10344;47.592;9.600;2022-08-23T01:01:05;15.70;99.90
20370;DHT22;10344;47.592;9.600;2022-08-23T01:03:32;15.70;99.90
20370;DHT22;10344;47.592;9.600;2022-08-23T01:08:43;15.60;99.90
20370;DHT22;10344;47.592;9.600;2022-08-23T01:11:23;15.60;99.90
20370;DHT22;10344;47.592;9.600;2022-08-23T01:13:54;15.60;99.90
20370;DHT22;10344;47.592;9.600;2022-08-23T01:16:41;15.60;99.90
20370;DHT22;10344;47.592;9.600;2022-08-23T01:19:24;15.60;99.90
20370;DHT22;10344;47.592;9.600;2022-08-23T01:21:54;15.50;99.90
20370;DHT22;10344;47.592;9.600;2022-08-23T01:24:23;15.50;99.90
20370;DHT22;10344;47.592;9.600;2022-08-23T01:26:49;15.50;99.90
20370;DHT22;10344;47.592;9.600;2022-08-23T01:29:14;15.40;99.90
20370;DHT22;10344;47.592;9.600;2022-08-23T01:31:42;15.40;99.90
20370;DHT22;10344;47.592;9.600;2022-08-23T01:34:13;15.40;99.90
20370;DHT22;10344;47.592;9.600;2022-08-23T01:36:40;15.40;99.90
20370;DHT22;10344;47.592;9.600;2022-08-23T01:39:07;15.40;99.90
20370;DHT22;10344;47.592;9.600;2022-08-23T01:41:35;15.40;99.90
20370;DHT22;10344;47.592;9.600;2022-08-23T01:44:04;15.40;99.90
20370;DHT22;10344;47.592;9.600;2022-08-23T01:46:30;15.30;99.90
20370;DHT22;10344;47.592;9.600;2022-08-23T01:48:55;15.40;99.90
20370;DHT22;10344;47.592;9.600;2022-08-23T01:51:23;15.30;99.90
20370;DHT22;10344;47.592;9.600;2022-08-23T01:53:49;15.30;99.90
20370;DHT22;10344;47.592;9.600;2022-08-23T01:56:15;15.30;99.90
20370;DHT22;10344;47.592;9.600;2022-08-23T01:58:44;15.20;99.90
20370;DHT22;10344;47.592;9.600;2022-08-23T02:01:10;15.10;99.90
20370;DHT22;10344;47.592;9.600;2022-08-23T02:03:40;15.10;99.90
20370;DHT22;10344;47.592;9.600;2022-08-23T02:06:05;15.00;99.90
20370;DHT22;10344;47.592;9.600;2022-08-23T02:08:31;15.10;99.90
20370;DHT22;10344;47.592;9.600;2022-08-23T02:20:28;14.70;99.90
20370;DHT22;10344;47.592;9.600;2022-08-23T02:22:54;14.80;99.90
20370;DHT22;10344;47.592;9.600;2022-08-23T02:25:21;14.70;99.90
20370;DHT22;10344;47.592;9.600;2022-08-23T02:27:58;14.70;99.90
20370;DHT22;10344;47.592;9.600;2022-08-23T02:30:39;14.80;99.90
20370;DHT22;10344;47.592;9.600;2022-08-23T02:33:04;14.70;99.90
20370;DHT22;10344;47.592;9.600;2022-08-23T02:35:31;14.70;99.90
20370;DHT22;10344;47.592;9.600;2022-08-23T02:38:01;14.60;99.90
20370;DHT22;10344;47.592;9.600;2022-08-23T02:40:31;14.60;99.90
20370;DHT22;10344;47.592;9.600;2022-08-23T02:42:59;14.60;99.90
20370;DHT22;10344;47.592;9.600;2022-08-23T02:45:26;14.60;99.90
20370;DHT22;10344;47.592;9.600;2022-08-23T02:47:51;14.60;99.90
20370;DHT22;10344;47.592;9.600;2022-08-23T02:50:17;14.60;99.90
20370;DHT22;10344;47.592;9.600;2022-08-23T02:52:43;14.50;99.90
20370;DHT22;10344;47.592;9.600;2022-08-23T02:55:09;14.50;99.90
20370;DHT22;10344;47.592;9.600;2022-08-23T02:57:34;14.50;99.90
20370;DHT22;10344;47.592;9.600;2022-08-23T03:00:00;14.40;99.90
20370;DHT22;10344;47.592;9.600;2022-08-23T03:02:26;14.40;99.90
20370;DHT22;10344;47.592;9.600;2022-08-23T03:04:57;14.50;99.90
20370;DHT22;10344;47.592;9.600;2022-08-23T03:07:32;14.40;99.90
20370;DHT22;10344;47.592;9.600;2022-08-23T03:09:59;14.30;99.90
20370;DHT22;10344;47.592;9.600;2022-08-23T03:12:29;14.30;99.90
20370;DHT22;10344;47.592;9.600;2022-08-23T03:23:00;14.20;99.90
20370;DHT22;10344;47.592;9.600;2022-08-23T03:25:26;14.20;99.90
20370;DHT22;10344;47.592;9.600;2022-08-23T03:27:51;14.20;99.90
20370;DHT22;10344;47.592;9.600;2022-08-23T03:30:18;14.20;99.90
20370;DHT22;10344;47.592;9.600;2022-08-23T03:32:54;14.20;99.90
20370;DHT22;10344;47.592;9.600;2022-08-23T03:35:29;14.20;99.90
20370;DHT22;10344;47.592;9.600;2022-08-23T03:37:56;14.20;99.90
20370;DHT22;10344;47.592;9.600;2022-08-23T03:40:37;14.10;99.90
20370;DHT22;10344;47.592;9.600;2022-08-23T03:43:04;14.10;99.90
20370;DHT22;10344;47.592;9.600;2022-08-23T03:45:33;14.20;99.90
20370;DHT22;10344;47.592;9.600;2022-08-23T03:47:59;14.20;99.90
20370;DHT22;10344;47.592;9.600;2022-08-23T03:50:24;14.20;99.90
20370;DHT22;10344;47.592;9.600;2022-08-23T03:52:50;14.10;99.90
20370;DHT22;10344;47.592;9.600;2022-08-23T03:55:17;14.10;99.90
20370;DHT22;10344;47.592;9.600;2022-08-23T03:57:43;14.10;99.90
20370;DHT22;10344;47.592;9.600;2022-08-23T04:00:11;14.00;99.90
20370;DHT22;10344;47.592;9.600;2022-08-23T04:02:39;14.00;99.90
20370;DHT22;10344;47.592;9.600;2022-08-23T04:05:08;14.00;99.90
20370;DHT22;10344;47.592;9.600;2022-08-23T04:07:36;13.90;99.90
20370;DHT22;10344;47.592;9.600;2022-08-23T04:10:02;13.90;99.90
20370;DHT22;10344;47.592;9.600;2022-08-23T04:12:29;13.80;99.90
20370;DHT22;10344;47.592;9.600;2022-08-23T04:14:57;13.80;99.90
20370;DHT22;10344;47.592;9.600;2022-08-23T04:17:22;13.80;99.90
20370;DHT22;10344;47.592;9.600;2022-08-23T04:19:48;13.80;99.90
20370;DHT22;10344;47.592;9.600;2022-08-23T04:22:17;13.90;99.90
20370;DHT22;10344;47.592;9.600;2022-08-23T04:24:43;13.90;99.90
20370;DHT22;10344;47.592;9.600;2022-08-23T04:27:11;13.90;99.90
20370;DHT22;10344;47.592;9.600;2022-08-23T04:29:39;14.00;99.90
20370;DHT22;10344;47.592;9.600;2022-08-23T04:32:06;14.00;99.90
20370;DHT22;10344;47.592;9.600;2022-08-23T04:34:33;13.90;99.90
20370;DHT22;10344;47.592;9.600;2022-08-23T04:36:59;13.90;99.90
20370;DHT22;10344;47.592;9.600;2022-08-23T04:39:25;13.90;99.90
20370;DHT22;10344;47.592;9.600;2022-08-23T04:41:51;13.90;99.90
20370;DHT22;10344;47.592;9.600;2022-08-23T04:44:35;13.90;99.90
20370;DHT22;10344;47.592;9.600;2022-08-23T04:47:02;13.90;99.90
20370;DHT22;10344;47.592;9.600;2022-08-23T04:49:28;13.90;99.90
20370;DHT22;10344;47.592;9.600;2022-08-23T04:51:59;13.80;99.90
20370;DHT22;10344;47.592;9.600;2022-08-23T04:54:25;13.80;99.90
20370;DHT22;10344;47.592;9.600;2022-08-23T04:56:51;13.80;99.90
20370;DHT22;10344;47.592;9.600;2022-08-23T04:59:18;13.80;99.90
20370;DHT22;10344;47.592;9.600;2022-08-23T05:01:44;13.80;99.90
20370;DHT22;10344;47.592;9.600;2022-08-23T05:04:09;13.80;99.90
20370;DHT22;10344;47.592;9.600;2022-08-23T05:06:35;13.80;99.90
20370;DHT22;10344;47.592;9.600;2022-08-23T05:09:01;13.80;99.90
20370;DHT22;10344;47.592;9.600;2022-08-23T05:11:27;13.90;99.90
20370;DHT22;10344;47.592;9.600;2022-08-23T05:13:53;13.90;99.90
20370;DHT22;10344;47.592;9.600;2022-08-23T05:16:21;13.90;99.90
20370;DHT22;10344;47.592;9.600;2022-08-23T05:18:47;13.90;99.90
20370;DHT22;10344;47.592;9.600;2022-08-23T05:21:16;14.00;99.90
20370;DHT22;10344;47.592;9.600;2022-08-23T05:23:42;14.00;99.90
20370;DHT22;10344;47.592;9.600;2022-08-23T05:26:07;13.90;99.90
20370;DHT22;10344;47.592;9.600;2022-08-23T05:28:39;14.00;99.90
20370;DHT22;10344;47.592;9.600;2022-08-23T05:33:31;14.10;99.90
20370;DHT22;10344;47.592;9.600;2022-08-23T05:35:57;14.10;99.90
20370;DHT22;10344;47.592;9.600;2022-08-23T05:38:23;14.10;99.90
20370;DHT22;10344;47.592;9.600;2022-08-23T05:41:02;14.20;99.90
20370;DHT22;10344;47.592;9.600;2022-08-23T05:43:33;14.30;99.90
20370;DHT22;10344;47.592;9.600;2022-08-23T05:48:24;14.40;99.90
20370;DHT22;10344;47.592;9.600;2022-08-23T05:50:52;14.40;99.90
20370;DHT22;10344;47.592;9.600;2022-08-23T05:53:18;14.50;99.90
20370;DHT22;10344;47.592;9.600;2022-08-23T05:55:46;14.50;99.90
20370;DHT22;10344;47.592;9.600;2022-08-23T05:58:12;14.60;99.90
20370;DHT22;10344;47.592;9.600;2022-08-23T06:00:38;14.70;99.90
20370;DHT22;10344;47.592;9.600;2022-08-23T06:03:04;14.70;99.90
20370;DHT22;10344;47.592;9.600;2022-08-23T06:05:32;14.80;99.90
20370;DHT22;10344;47.592;9.600;2022-08-23T06:08:00;14.90;99.90
20370;DHT22;10344;47.592;9.600;2022-08-23T06:10:25;15.00;99.90
20370;DHT22;10344;47.592;9.600;2022-08-23T06:12:51;15.10;99.90
20370;DHT22;10344;47.592;9.600;2022-08-23T06:15:19;15.20;99.90
20370;DHT22;10344;47.592;9.600;2022-08-23T06:17:45;15.30;99.90
20370;DHT22;10344;47.592;9.600;2022-08-23T06:20:13;15.40;99.90
20370;DHT22;10344;47.592;9.600;2022-08-23T06:22:40;15.50;99.90
20370;DHT22;10344;47.592;9.600;2022-08-23T06:25:06;15.60;99.90
20370;DHT22;10344;47.592;9.600;2022-08-23T06:27:34;15.70;99.90
20370;DHT22;10344;47.592;9.600;2022-08-23T06:29:59;15.80;99.90
20370;DHT22;10344;47.592;9.600;2022-08-23T06:32:27;16.00;99.90
20370;DHT22;10344;47.592;9.600;2022-08-23T06:34:53;16.10;99.90
20370;DHT22;10344;47.592;9.600;2022-08-23T06:37:19;16.20;99.90
20370;DHT22;10344;47.592;9.600;2022-08-23T06:39:44;16.30;99.90
20370;DHT22;10344;47.592;9.600;2022-08-23T06:42:13;16.50;99.90
20370;DHT22;10344;47.592;9.600;2022-08-23T06:44:41;16.60;99.90
20370;DHT22;10344;47.592;9.600;2022-08-23T06:47:11;16.80;99.90
20370;DHT22;10344;47.592;9.600;2022-08-23T06:49:36;17.10;99.90
20370;DHT22;10344;47.592;9.600;2022-08-23T06:52:03;17.30;99.90
20370;DHT22;10344;47.592;9.600;2022-08-23T06:54:34;18.30;99.90
20370;DHT22;10344;47.592;9.600;2022-08-23T06:57:03;19.30;99.90
20370;DHT22;10344;47.592;9.600;2022-08-23T06:59:29;20.40;99.90
20370;DHT22;10344;47.592;9.600;2022-08-23T07:01:58;21.70;99.90
20370;DHT22;10344;47.592;9.600;2022-08-23T07:04:30;22.40;99.90
20370;DHT22;10344;47.592;9.600;2022-08-23T07:06:56;23.80;99.90
20370;DHT22;10344;47.592;9.600;2022-08-23T07:09:23;24.90;99.90
20370;DHT22;10344;47.592;9.600;2022-08-23T07:11:49;25.80;99.90
20370;DHT22;10344;47.592;9.600;2022-08-23T07:14:17;25.70;99.90
20370;DHT22;10344;47.592;9.600;2022-08-23T07:16:47;26.10;99.90
20370;DHT22;10344;47.592;9.600;2022-08-23T07:19:15;26.30;99.90
20370;DHT22;10344;47.592;9.600;2022-08-23T07:21:42;26.10;99.90
20370;DHT22;10344;47.592;9.600;2022-08-23T07:24:10;25.30;99.90
20370;DHT22;10344;47.592;9.600;2022-08-23T07:26:39;25.50;99.90
20370;DHT22;10344;47.592;9.600;2022-08-23T07:29:06;26.20;99.90
20370;DHT22;10344;47.592;9.600;2022-08-23T07:31:39;26.60;99.90
20370;DHT22;10344;47.592;9.600;2022-08-23T07:34:05;27.20;99.90
20370;DHT22;10344;47.592;9.600;2022-08-23T07:36:32;28.00;99.90
20370;DHT22;10344;47.592;9.600;2022-08-23T07:38:58;28.50;99.90
20370;DHT22;10344;47.592;9.600;2022-08-23T07:41:27;28.60;99.90
20370;DHT22;10344;47.592;9.600;2022-08-23T07:43:56;29.50;99.90
20370;DHT22;10344;47.592;9.600;2022-08-23T07:46:25;29.10;99.90
20370;DHT22;10344;47.592;9.600;2022-08-23T07:48:51;28.60;99.90
20370;DHT22;10344;47.592;9.600;2022-08-23T07:51:17;28.70;99.90
20370;DHT22;10344;47.592;9.600;2022-08-23T07:53:44;28.80;99.90
20370;DHT22;10344;47.592;9.600;2022-08-23T07:56:12;28.80;99.90
20370;DHT22;10344;47.592;9.600;2022-08-23T07:58:38;28.60;99.90
20370;DHT22;10344;47.592;9.600;2022-08-23T08:01:18;28.30;99.90
20370;DHT22;10344;47.592;9.600;2022-08-23T08:03:46;28.20;99.90
20370;DHT22;10344;47.592;9.600;2022-08-23T08:06:21;28.10;99.90
20370;DHT22;10344;47.592;9.600;2022-08-23T08:08:47;28.10;99.90
20370;DHT22;10344;47.592;9.600;2022-08-23T08:11:18;28.90;99.90
20370;DHT22;10344;47.592;9.600;2022-08-23T08:13:46;29.10;99.90
20370;DHT22;10344;47.592;9.600;2022-08-23T08:16:24;28.20;99.90
20370;DHT22;10344;47.592;9.600;2022-08-23T08:18:52;27.90;99.90
20370;DHT22;10344;47.592;9.600;2022-08-23T08:21:18;28.50;99.90
20370;DHT22;10344;47.592;9.600;2022-08-23T08:23:44;29.30;99.90
20370;DHT22;10344;47.592;9.600;2022-08-23T08:26:10;30.10;99.90
20370;DHT22;10344;47.592;9.600;2022-08-23T08:28:36;30.00;99.90
20370;DHT22;10344;47.592;9.600;2022-08-23T08:31:04;30.10;99.90
20370;DHT22;10344;47.592;9.600;2022-08-23T08:33:30;29.80;99.90
20370;DHT22;10344;47.592;9.600;2022-08-23T08:35:57;30.20;99.90
20370;DHT22;10344;47.592;9.600;2022-08-23T08:38:23;29.70;99.90
20370;DHT22;10344;47.592;9.600;2022-08-23T08:41:17;29.70;99.90
20370;DHT22;10344;47.592;9.600;2022-08-23T08:46:49;29.20;99.90
20370;DHT22;10344;47.592;9.600;2022-08-23T08:52:27;29.00;99.90
20370;DHT22;10344;47.592;9.600;2022-08-23T08:55:10;29.40;99.90
20370;DHT22;10344;47.592;9.600;2022-08-23T08:57:43;30.10;99.90
20370;DHT22;10344;47.592;9.600;2022-08-23T09:02:38;29.50;99.90
20370;DHT22;10344;47.592;9.600;2022-08-23T09:05:13;29.40;99.90
20370;DHT22;10344;47.592;9.600;2022-08-23T09:18:53;29.30;99.90
20370;DHT22;10344;47.592;9.600;2022-08-23T09:21:19;29.00;99.90
20370;DHT22;10344;47.592;9.600;2022-08-23T09:23:46;29.00;99.90
20370;DHT22;10344;47.592;9.600;2022-08-23T09:26:29;28.70;99.90
20370;DHT22;10344;47.592;9.600;2022-08-23T09:29:10;28.70;99.90
20370;DHT22;10344;47.592;9.600;2022-08-23T09:31:46;28.30;99.90
20370;DHT22;10344;47.592;9.600;2022-08-23T09:34:22;28.80;99.90
20370;DHT22;10344;47.592;9.600;2022-08-23T09:37:23;29.00;99.90
20370;DHT22;10344;47.592;9.600;2022-08-23T09:39:50;29.00;99.90
20370;DHT22;10344;47.592;9.600;2022-08-23T09:42:34;29.50;99.90
20370;DHT22;10344;47.592;9.600;2022-08-23T09:45:04;29.70;99.90
20370;DHT22;10344;47.592;9.600;2022-08-23T09:47:36;29.50;99.90
20370;DHT22;10344;47.592;9.600;2022-08-23T09:53:07;29.40;99.90
20370;DHT22;10344;47.592;9.600;2022-08-23T09:55:37;29.50;99.90
20370;DHT22;10344;47.592;9.600;2022-08-23T09:58:29;29.40;99.90
20370;DHT22;10344;47.592;9.600;2022-08-23T10:01:18;29.10;99.90
20370;DHT22;10344;47.592;9.600;2022-08-23T10:03:44;28.60;99.90
20370;DHT22;10344;47.592;9.600;2022-08-23T10:06:28;28.70;99.90
20370;DHT22;10344;47.592;9.600;2022-08-23T10:08:55;28.70;99.90
20370;DHT22;10344;47.592;9.600;2022-08-23T10:11:28;28.80;99.90
20370;DHT22;10344;47.592;9.600;2022-08-23T10:13:55;28.30;99.90
20370;DHT22;10344;47.592;9.600;2022-08-23T10:16:40;27.90;99.90
20370;DHT22;10344;47.592;9.600;2022-08-23T10:30:13;29.70;99.90
20370;DHT22;10344;47.592;9.600;2022-08-23T10:33:07;27.90;99.90
20370;DHT22;10344;47.592;9.600;2022-08-23T10:36:00;27.30;99.90
20370;DHT22;10344;47.592;9.600;2022-08-23T10:38:48;27.40;99.90
20370;DHT22;10344;47.592;9.600;2022-08-23T10:46:23;26.90;99.90
20370;DHT22;10344;47.592;9.600;2022-08-23T10:48:57;27.00;99.90
20370;DHT22;10344;47.592;9.600;2022-08-23T10:54:13;27.00;99.90
20370;DHT22;10344;47.592;9.600;2022-08-23T10:56:41;27.20;99.90
20370;DHT22;10344;47.592;9.600;2022-08-23T10:59:16;26.90;99.90
20370;DHT22;10344;47.592;9.600;2022-08-23T11:04:53;26.90;99.90
20370;DHT22;10344;47.592;9.600;2022-08-23T11:07:32;27.30;99.90
20370;DHT22;10344;47.592;9.600;2022-08-23T11:10:24;27.60;99.90
20370;DHT22;10344;47.592;9.600;2022-08-23T11:12:56;27.40;99.90
20370;DHT22;10344;47.592;9.600;2022-08-23T11:31:39;29.70;99.90
20370;DHT22;10344;47.592;9.600;2022-08-23T11:34:20;29.50;99.90
20370;DHT22;10344;47.592;9.600;2022-08-23T11:44:52;29.80;99.90
20370;DHT22;10344;47.592;9.600;2022-08-23T11:47:28;30.10;99.90
20370;DHT22;10344;47.592;9.600;2022-08-23T11:52:53;30.90;99.90
20370;DHT22;10344;47.592;9.600;2022-08-23T11:58:25;30.00;99.90
20370;DHT22;10344;47.592;9.600;2022-08-23T12:01:13;29.90;99.90
20370;DHT22;10344;47.592;9.600;2022-08-23T12:03:58;29.60;99.90
20370;DHT22;10344;47.592;9.600;2022-08-23T12:06:39;29.40;99.90
20370;DHT22;10344;47.592;9.600;2022-08-23T12:22:27;31.30;99.90
20370;DHT22;10344;47.592;9.600;2022-08-23T12:25:04;31.70;99.90
20370;DHT22;10344;47.592;9.600;2022-08-23T12:27:43;31.80;96.70
20370;DHT22;10344;47.592;9.600;2022-08-23T12:32:58;31.80;96.10
20370;DHT22;10344;47.592;9.600;2022-08-23T12:38:33;31.90;93.00
20370;DHT22;10344;47.592;9.600;2022-08-23T12:41:32;32.30;90.00
20370;DHT22;10344;47.592;9.600;2022-08-23T12:44:04;32.20;90.00
20370;DHT22;10344;47.592;9.600;2022-08-23T12:46:40;32.10;90.90
20370;DHT22;10344;47.592;9.600;2022-08-23T12:49:09;32.30;84.70
20370;DHT22;10344;47.592;9.600;2022-08-23T12:51:48;32.30;87.50
20370;DHT22;10344;47.592;9.600;2022-08-23T12:54:19;32.10;86.20
20370;DHT22;10344;47.592;9.600;2022-08-23T12:56:47;32.30;85.40
20370;DHT22;10344;47.592;9.600;2022-08-23T13:02:07;32.30;85.00
20370;DHT22;10344;47.592;9.600;2022-08-23T13:04:37;32.30;82.20
20370;DHT22;10344;47.592;9.600;2022-08-23T13:07:07;32.50;84.70
20370;DHT22;10344;47.592;9.600;2022-08-23T13:09:39;32.20;83.60
20370;DHT22;10344;47.592;9.600;2022-08-23T13:12:07;32.00;83.40
20370;DHT22;10344;47.592;9.600;2022-08-23T13:14:35;32.00;83.00
20370;DHT22;10344;47.592;9.600;2022-08-23T13:22:38;32.10;82.80
20370;DHT22;10344;47.592;9.600;2022-08-23T13:35:30;31.90;81.10
20370;DHT22;10344;47.592;9.600;2022-08-23T13:38:21;31.70;79.20
20370;DHT22;10344;47.592;9.600;2022-08-23T13:41:05;32.00;80.60
20370;DHT22;10344;47.592;9.600;2022-08-23T13:46:16;32.50;79.60
20370;DHT22;10344;47.592;9.600;2022-08-23T13:48:50;32.50;75.40
20370;DHT22;10344;47.592;9.600;2022-08-23T13:51:31;32.50;77.50
20370;DHT22;10344;47.592;9.600;2022-08-23T13:54:00;32.50;74.30
20370;DHT22;10344;47.592;9.600;2022-08-23T13:56:28;32.40;77.50
20370;DHT22;10344;47.592;9.600;2022-08-23T13:59:05;32.10;76.80
20370;DHT22;10344;47.592;9.600;2022-08-23T14:01:32;31.70;78.30
20370;DHT22;10344;47.592;9.600;2022-08-23T14:03:58;31.40;79.50
20370;DHT22;10344;47.592;9.600;2022-08-23T14:06:24;31.30;78.60
20370;DHT22;10344;47.592;9.600;2022-08-23T14:08:50;31.40;82.10
20370;DHT22;10344;47.592;9.600;2022-08-23T14:11:16;31.40;78.40
20370;DHT22;10344;47.592;9.600;2022-08-23T14:13:45;31.40;76.50
20370;DHT22;10344;47.592;9.600;2022-08-23T14:16:25;31.30;76.50
20370;DHT22;10344;47.592;9.600;2022-08-23T14:18:55;31.30;78.40
20370;DHT22;10344;47.592;9.600;2022-08-23T14:21:21;31.30;76.20
20370;DHT22;10344;47.592;9.600;2022-08-23T14:23:47;31.30;77.90
20370;DHT22;10344;47.592;9.600;2022-08-23T14:26:15;31.20;76.70
20370;DHT22;10344;47.592;9.600;2022-08-23T14:28:42;31.20;78.80
20370;DHT22;10344;47.592;9.600;2022-08-23T14:31:08;31.10;77.40
20370;DHT22;10344;47.592;9.600;2022-08-23T14:33:34;31.30;78.00
20370;DHT22;10344;47.592;9.600;2022-08-23T14:36:00;31.20;78.30
20370;DHT22;10344;47.592;9.600;2022-08-23T14:38:26;31.20;75.40
20370;DHT22;10344;47.592;9.600;2022-08-23T14:41:02;31.20;76.30
20370;DHT22;10344;47.592;9.600;2022-08-23T14:43:29;31.20;77.50
20370;DHT22;10344;47.592;9.600;2022-08-23T14:45:56;31.20;77.00
20370;DHT22;10344;47.592;9.600;2022-08-23T14:48:22;31.10;75.50
20370;DHT22;10344;47.592;9.600;2022-08-23T14:50:50;31.00;74.00
20370;DHT22;10344;47.592;9.600;2022-08-23T14:53:18;30.70;72.50
20370;DHT22;10344;47.592;9.600;2022-08-23T14:55:44;30.60;75.60
20370;DHT22;10344;47.592;9.600;2022-08-23T14:58:10;30.50;74.00
20370;DHT22;10344;47.592;9.600;2022-08-23T15:00:38;30.40;73.90
20370;DHT22;10344;47.592;9.600;2022-08-23T15:03:08;30.40;76.80
20370;DHT22;10344;47.592;9.600;2022-08-23T15:05:37;30.60;77.10
20370;DHT22;10344;47.592;9.600;2022-08-23T15:08:03;30.90;75.60
20370;DHT22;10344;47.592;9.600;2022-08-23T15:10:28;31.00;73.20
20370;DHT22;10344;47.592;9.600;2022-08-23T15:12:54;31.00;75.30
20370;DHT22;10344;47.592;9.600;2022-08-23T15:15:20;30.90;72.90
20370;DHT22;10344;47.592;9.600;2022-08-23T15:17:52;30.90;72.30
20370;DHT22;10344;47.592;9.600;2022-08-23T15:20:25;31.20;74.00
20370;DHT22;10344;47.592;9.600;2022-08-23T15:22:51;31.40;74.80
20370;DHT22;10344;47.592;9.600;2022-08-23T15:25:17;31.70;72.50
20370;DHT22;10344;47.592;9.600;2022-08-23T15:27:43;31.90;73.50
20370;DHT22;10344;47.592;9.600;2022-08-23T15:30:12;32.20;70.10
20370;DHT22;10344;47.592;9.600;2022-08-23T15:32:38;32.10;70.40
20370;DHT22;10344;47.592;9.600;2022-08-23T15:35:07;32.00;69.50
20370;DHT22;10344;47.592;9.600;2022-08-23T15:37:33;32.40;70.40
20370;DHT22;10344;47.592;9.600;2022-08-23T15:40:02;32.50;70.80
20370;DHT22;10344;47.592;9.600;2022-08-23T15:42:30;32.50;71.20
20370;DHT22;10344;47.592;9.600;2022-08-23T15:44:58;32.50;70.80
20370;DHT22;10344;47.592;9.600;2022-08-23T15:47:30;32.50;67.90
20370;DHT22;10344;47.592;9.600;2022-08-23T15:49:58;32.50;66.80
20370;DHT22;10344;47.592;9.600;2022-08-23T15:52:25;32.60;67.00
20370;DHT22;10344;47.592;9.600;2022-08-23T15:54:50;32.60;69.30
20370;DHT22;10344;47.592;9.600;2022-08-23T15:57:21;32.30;68.20
20370;DHT22;10344;47.592;9.600;2022-08-23T15:59:50;32.00;67.20
20370;DHT22;10344;47.592;9.600;2022-08-23T16:02:16;31.80;70.30
20370;DHT22;10344;47.592;9.600;2022-08-23T16:04:42;31.70;71.40
20370;DHT22;10344;47.592;9.600;2022-08-23T16:07:12;31.50;71.50
20370;DHT22;10344;47.592;9.600;2022-08-23T16:09:38;31.30;70.90
20370;DHT22;10344;47.592;9.600;2022-08-23T16:12:05;30.60;71.90
20370;DHT22;10344;47.592;9.600;2022-08-23T16:14:33;29.80;73.10
20370;DHT22;10344;47.592;9.600;2022-08-23T16:16:59;29.10;75.20
20370;DHT22;10344;47.592;9.600;2022-08-23T16:19:26;28.70;78.50
20370;DHT22;10344;47.592;9.600;2022-08-23T16:21:53;28.40;76.30
20370;DHT22;10344;47.592;9.600;2022-08-23T16:24:20;28.10;77.50
20370;DHT22;10344;47.592;9.600;2022-08-23T16:26:47;27.80;78.60
20370;DHT22;10344;47.592;9.600;2022-08-23T16:29:15;27.60;79.10
20370;DHT22;10344;47.592;9.600;2022-08-23T16:31:42;27.30;79.00
20370;DHT22;10344;47.592;9.600;2022-08-23T16:34:13;27.10;79.60
20370;DHT22;10344;47.592;9.600;2022-08-23T16:36:43;27.00;80.50
20370;DHT22;10344;47.592;9.600;2022-08-23T16:39:13;26.90;79.90
20370;DHT22;10344;47.592;9.600;2022-08-23T16:41:39;26.80;82.00
20370;DHT22;10344;47.592;9.600;2022-08-23T16:44:05;26.60;82.10
20370;DHT22;10344;47.592;9.600;2022-08-23T16:46:32;26.40;84.70
20370;DHT22;10344;47.592;9.600;2022-08-23T16:48:58;26.20;85.00
20370;DHT22;10344;47.592;9.600;2022-08-23T16:51:23;26.10;85.40
20370;DHT22;10344;47.592;9.600;2022-08-23T16:53:49;26.00;86.10
20370;DHT22;10344;47.592;9.600;2022-08-23T16:56:16;26.00;86.70
20370;DHT22;10344;47.592;9.600;2022-08-23T16:58:43;25.90;86.10
20370;DHT22;10344;47.592;9.600;2022-08-23T17:01:16;25.80;89.90
20370;DHT22;10344;47.592;9.600;2022-08-23T17:03:45;25.60;88.60
20370;DHT22;10344;47.592;9.600;2022-08-23T17:06:11;25.50;88.40
20370;DHT22;10344;47.592;9.600;2022-08-23T17:08:39;25.40;89.40
20370;DHT22;10344;47.592;9.600;2022-08-23T17:11:12;25.30;89.80
20370;DHT22;10344;47.592;9.600;2022-08-23T17:13:38;25.20;91.10
20370;DHT22;10344;47.592;9.600;2022-08-23T17:16:04;25.00;91.40
20370;DHT22;10344;47.592;9.600;2022-08-23T17:18:30;24.90;91.40
20370;DHT22;10344;47.592;9.600;2022-08-23T17:20:56;24.80;92.00
20370;DHT22;10344;47.592;9.600;2022-08-23T17:23:22;24.70;91.80
20370;DHT22;10344;47.592;9.600;2022-08-23T17:25:48;24.60;92.00
20370;DHT22;10344;47.592;9.600;2022-08-23T17:28:17;24.50;92.50
20370;DHT22;10344;47.592;9.600;2022-08-23T17:30:43;24.40;92.70
20370;DHT22;10344;47.592;9.600;2022-08-23T17:33:08;24.30;93.70
20370;DHT22;10344;47.592;9.600;2022-08-23T17:35:35;24.30;93.60
20370;DHT22;10344;47.592;9.600;2022-08-23T17:38:02;24.20;93.90
20370;DHT22;10344;47.592;9.600;2022-08-23T17:40:31;24.10;94.40
20370;DHT22;10344;47.592;9.600;2022-08-23T17:42:58;24.00;94.90
20370;DHT22;10344;47.592;9.600;2022-08-23T17:45:38;23.80;94.80
20370;DHT22;10344;47.592;9.600;2022-08-23T17:48:04;23.70;96.10
20370;DHT22;10344;47.592;9.600;2022-08-23T17:50:31;23.70;96.30
20370;DHT22;10344;47.592;9.600;2022-08-23T17:52:59;23.50;96.60
20370;DHT22;10344;47.592;9.600;2022-08-23T17:55:28;23.50;96.10
20370;DHT22;10344;47.592;9.600;2022-08-23T17:57:56;23.30;96.80
20370;DHT22;10344;47.592;9.600;2022-08-23T18:00:22;23.30;96.90
20370;DHT22;10344;47.592;9.600;2022-08-23T18:02:47;23.20;97.50
20370;DHT22;10344;47.592;9.600;2022-08-23T18:05:13;23.10;97.90
20370;DHT22;10344;47.592;9.600;2022-08-23T18:07:42;23.00;98.30
20370;DHT22;10344;47.592;9.600;2022-08-23T18:10:09;22.90;98.80